Time;durP1;ratioP1;P1;durP2;ratioP2;P2;SDS_P1;SDS_P2;PMS_P1;PMS_P2;Temp;Humidity;BMP_temperature;BMP_pressure;BME280_temperature;BME280_humidity;BME280_pressure;Samples;Min_cycle;Max_cycle;Signal;HPM_P1;HPM_P2
2023/07/18 00:00:44;;;;;;;;;;;;;;;19.13;43.54;102073.25;4836179;29;113977;-73
2023/07/18 00:03:12;;;;;;;;;;;;;;;19.11;43.80;102081.41;4834406;29;124431;-73
2023/07/18 00:05:40;;;;;;;;;;;;;;;19.09;43.69;102066.34;4849893;28;123130;-74
2023/07/18 00:08:08;;;;;;;;;;;;;;;19.07;43.80;102063.75;4837128;29;114591;-73
2023/07/18 00:10:35;;;;;;;;;;;;;;;19.08;43.76;102060.13;4836484;29;114268;-74
2023/07/18 00:13:02;;;;;;;;;;;;;;;19.08;43.87;102070.88;4844240;29;124038;-74
2023/07/18 00:15:29;;;;;;;;;;;;;;;19.09;43.75;102072.59;4829993;29;124494;-74
2023/07/18 00:17:56;;;;;;;;;;;;;;;19.07;43.89;102063.75;4837251;29;115294;-74
2023/07/18 00:20:24;;;;;;;;;;;;;;;19.07;43.88;102071.81;4851533;28;113492;-74
2023/07/18 00:22:51;;;;;;;;;;;;;;;19.06;43.89;102072.75;4837011;29;125026;-74
2023/07/18 00:25:19;;;;;;;;;;;;;;;19.05;44.00;102068.38;4835511;29;124159;-74
2023/07/18 00:27:47;;;;;;;;;;;;;;;19.04;43.98;102054.09;4834253;29;115414;-74
2023/07/18 00:30:14;;;;;;;;;;;;;;;19.02;43.97;102060.47;4850791;28;114566;-74
2023/07/18 00:32:42;;;;;;;;;;;;;;;19.01;44.01;102066.84;4829912;29;123389;-74
2023/07/18 00:35:11;;;;;;;;;;;;;;;18.98;44.06;102059.81;4836456;29;124791;-74
2023/07/18 00:37:38;;;;;;;;;;;;;;;18.97;44.01;102058.09;4835496;29;113471;-74
2023/07/18 00:40:10;;;;;;;;;;;;;;;18.95;44.07;102064.50;4834354;29;112697;-74
2023/07/18 00:42:38;;;;;;;;;;;;;;;18.93;44.15;102061.03;4840777;29;124276;-74
2023/07/18 00:45:06;;;;;;;;;;;;;;;18.91;43.88;102062.97;4851074;28;122980;-74
2023/07/18 00:47:37;;;;;;;;;;;;;;;18.88;44.11;102064.03;4836459;29;114085;-74
2023/07/18 00:50:08;;;;;;;;;;;;;;;18.86;44.15;102071.31;4850660;28;112908;-74
2023/07/18 00:52:35;;;;;;;;;;;;;;;18.84;44.01;102074.06;4834012;29;123125;-73
2023/07/18 00:55:03;;;;;;;;;;;;;;;18.81;44.27;102068.88;4850977;28;123094;-74
2023/07/18 00:57:31;;;;;;;;;;;;;;;18.78;44.18;102066.38;4851125;28;114591;-74
2023/07/18 00:59:59;;;;;;;;;;;;;;;18.76;44.26;102065.59;4835618;29;113558;-74
2023/07/18 01:02:26;;;;;;;;;;;;;;;18.73;44.29;102065.78;4848450;28;123976;-74
2023/07/18 01:04:53;;;;;;;;;;;;;;;18.70;44.20;102055.22;4843751;29;122993;-73
2023/07/18 01:07:20;;;;;;;;;;;;;;;18.69;44.18;102048.13;4837937;29;114965;-74
2023/07/18 01:09:48;;;;;;;;;;;;;;;18.67;44.24;102061.63;4835811;29;113347;-74
2023/07/18 01:12:17;;;;;;;;;;;;;;;18.66;44.44;102059.91;4836641;29;124568;-74
2023/07/18 01:14:44;;;;;;;;;;;;;;;18.65;44.20;102051.97;4836050;29;124587;-74
2023/07/18 01:17:12;;;;;;;;;;;;;;;18.63;44.45;102048.50;4850503;28;115100;-74
2023/07/18 01:19:39;;;;;;;;;;;;;;;18.59;44.49;102055.00;4834287;29;114090;-74
2023/07/18 01:22:08;;;;;;;;;;;;;;;18.58;44.40;102050.59;4834485;29;124843;-73
2023/07/18 01:24:35;;;;;;;;;;;;;;;18.56;44.41;102052.50;4833851;29;124136;-74
2023/07/18 01:27:02;;;;;;;;;;;;;;;18.54;44.30;102043.69;4854210;28;113889;-74
2023/07/18 01:29:29;;;;;;;;;;;;;;;18.53;44.38;102053.53;4833386;29;113601;-74
2023/07/18 01:31:56;;;;;;;;;;;;;;;18.52;44.52;102056.34;4834230;29;124000;-74
2023/07/18 01:34:24;;;;;;;;;;;;;;;18.51;44.58;102046.53;4833784;29;125304;-74
2023/07/18 01:36:54;;;;;;;;;;;;;;;18.48;44.51;102045.78;4835575;29;114328;-74
2023/07/18 01:39:21;;;;;;;;;;;;;;;18.47;44.53;102043.19;4832911;29;113342;-74
2023/07/18 01:41:49;;;;;;;;;;;;;;;18.45;44.64;102040.56;4835085;29;124419;-73
2023/07/18 01:44:19;;;;;;;;;;;;;;;18.44;44.56;102030.81;4835345;29;96981;-74
2023/07/18 01:46:46;;;;;;;;;;;;;;;18.43;44.68;102031.75;4833462;29;114780;-73
2023/07/18 01:49:13;;;;;;;;;;;;;;;18.42;44.88;102030.06;4849292;28;113440;-74
2023/07/18 01:51:40;;;;;;;;;;;;;;;18.43;44.64;102036.28;4835393;29;125185;-73
2023/07/18 01:54:07;;;;;;;;;;;;;;;18.41;44.80;102028.31;4834791;29;123843;-73
2023/07/18 01:56:34;;;;;;;;;;;;;;;18.40;44.70;102020.34;4843644;29;113289;-74
2023/07/18 01:59:01;;;;;;;;;;;;;;;18.36;44.66;102019.66;4850533;28;113012;-74
2023/07/18 02:01:28;;;;;;;;;;;;;;;18.32;44.72;102022.63;4835120;29;124960;-74
2023/07/18 02:03:55;;;;;;;;;;;;;;;18.25;44.68;102016.75;4845861;28;123969;-74
2023/07/18 02:06:24;;;;;;;;;;;;;;;18.20;44.62;102013.50;4835002;29;115239;-74
2023/07/18 02:08:51;;;;;;;;;;;;;;;18.16;44.90;102017.28;4834214;29;113617;-74
2023/07/18 02:11:18;;;;;;;;;;;;;;;18.12;44.77;102021.09;4833362;29;123318;-73
2023/07/18 02:13:46;;;;;;;;;;;;;;;18.06;44.72;102023.22;4833971;29;124166;-74
2023/07/18 02:16:13;;;;;;;;;;;;;;;18.04;44.74;102014.34;4849308;28;113998;-74
2023/07/18 02:18:40;;;;;;;;;;;;;;;17.99;44.96;102011.09;4834194;29;112765;-74
2023/07/18 02:21:07;;;;;;;;;;;;;;;17.97;44.90;102007.66;4834463;29;124448;-74
2023/07/18 02:23:36;;;;;;;;;;;;;;;17.93;44.93;102000.72;4834327;29;124757;-74
2023/07/18 02:26:03;;;;;;;;;;;;;;;17.91;44.98;101997.25;4833941;29;114324;-73
2023/07/18 02:28:30;;;;;;;;;;;;;;;17.88;45.12;101992.09;4849280;28;112787;-74
2023/07/18 02:30:59;;;;;;;;;;;;;;;17.86;45.05;101994.84;4834656;29;125108;-74
2023/07/18 02:33:26;;;;;;;;;;;;;;;17.84;45.11;102006.59;4832092;29;123777;-74
2023/07/18 02:35:53;;;;;;;;;;;;;;;17.80;45.02;101999.66;4835949;29;115045;-74
2023/07/18 02:38:20;;;;;;;;;;;;;;;17.77;45.02;102005.22;4849611;28;113502;-74
2023/07/18 02:40:47;;;;;;;;;;;;;;;17.75;45.15;102004.44;4834326;29;124892;-74
2023/07/18 02:43:14;;;;;;;;;;;;;;;17.73;45.15;102009.88;4834426;29;123331;-74
2023/07/18 02:45:41;;;;;;;;;;;;;;;17.70;45.32;102004.69;4834977;29;114754;-74
2023/07/18 02:48:08;;;;;;;;;;;;;;;17.70;45.27;102010.91;4838770;29;113543;-73
2023/07/18 02:50:35;;;;;;;;;;;;;;;17.68;45.39;101996.72;4839087;29;123633;-74
2023/07/18 02:53:03;;;;;;;;;;;;;;;17.68;45.34;101991.38;4834871;29;124588;-74
2023/07/18 02:55:30;;;;;;;;;;;;;;;17.68;45.25;101995.88;4848243;28;115144;-74
2023/07/18 02:57:57;;;;;;;;;;;;;;;17.67;45.25;102000.38;4835858;29;114708;-74
2023/07/18 03:00:26;;;;;;;;;;;;;;;17.66;45.43;102001.31;4836991;29;125387;-74
2023/07/18 03:02:53;;;;;;;;;;;;;;;17.66;45.39;101997.78;4851822;28;124114;-74
2023/07/18 03:05:22;;;;;;;;;;;;;;;17.64;45.33;101992.50;4834163;29;113628;-74
2023/07/18 03:07:49;;;;;;;;;;;;;;;17.63;45.35;102001.50;4837986;29;113404;-74
2023/07/18 03:10:17;;;;;;;;;;;;;;;17.64;45.55;102005.88;4851538;28;124636;-74
2023/07/18 03:12:45;;;;;;;;;;;;;;;17.63;45.45;102005.97;4838142;29;124094;-74
2023/07/18 03:15:12;;;;;;;;;;;;;;;17.61;45.45;102003.41;4852825;28;114995;-74
2023/07/18 03:17:41;;;;;;;;;;;;;;;17.63;45.53;102008.66;4837992;29;114258;-74
2023/07/18 03:20:19;;;;;;;;;;;;;;;17.61;45.48;102005.19;4835591;29;124665;-74
2023/07/18 03:22:50;;;;;;;;;;;;;;;17.61;45.56;102003.41;4851508;28;123137;-74
2023/07/18 03:25:17;;;;;;;;;;;;;;;17.60;45.49;102004.34;4836423;29;114388;-74
2023/07/18 03:27:44;;;;;;;;;;;;;;;17.59;45.65;102002.59;4837491;29;113464;-74
2023/07/18 03:30:12;;;;;;;;;;;;;;;17.60;45.73;102001.66;4836786;29;123908;-73
2023/07/18 03:32:39;;;;;;;;;;;;;;;17.60;45.65;102008.84;4835389;29;123681;-74
2023/07/18 03:35:07;;;;;;;;;;;;;;;17.59;45.52;102005.28;4831540;29;113522;-74
2023/07/18 03:37:34;;;;;;;;;;;;;;;17.59;45.56;102002.59;4836659;29;113265;-74
2023/07/18 03:40:04;;;;;;;;;;;;;;;17.59;45.71;102007.09;4835727;29;124579;-73
2023/07/18 03:42:31;;;;;;;;;;;;;;;17.58;45.71;102008.91;4856346;28;123036;-74
2023/07/18 03:44:58;;;;;;;;;;;;;;;17.57;45.61;101993.78;4836710;29;115330;-74
2023/07/18 03:47:25;;;;;;;;;;;;;;;17.57;45.76;102000.97;4850456;28;113602;-74
2023/07/18 03:49:52;;;;;;;;;;;;;;;17.56;45.72;102008.16;4836543;29;123852;-73
2023/07/18 03:52:19;;;;;;;;;;;;;;;17.56;45.79;102002.78;4837078;29;125597;-74
2023/07/18 03:54:46;;;;;;;;;;;;;;;17.55;45.76;102011.75;4859743;28;114511;-74
2023/07/18 03:57:13;;;;;;;;;;;;;;;17.53;45.89;102000.28;4834957;29;113624;-74
2023/07/18 03:59:40;;;;;;;;;;;;;;;17.53;45.77;101997.59;4833593;29;123351;-74
2023/07/18 04:02:07;;;;;;;;;;;;;;;17.52;45.75;101996.72;4839114;29;124955;-74
2023/07/18 04:04:34;;;;;;;;;;;;;;;17.52;45.94;101995.88;4835892;29;114730;-74
2023/07/18 04:07:02;;;;;;;;;;;;;;;17.51;45.62;101988.78;4853599;28;112135;-73
2023/07/18 04:09:30;;;;;;;;;;;;;;;17.51;46.01;101988.78;4836100;29;124984;-74
2023/07/18 04:11:57;;;;;;;;;;;;;;;17.51;45.99;101994.13;4838040;29;124115;-74
2023/07/18 04:14:24;;;;;;;;;;;;;;;17.50;45.92;101987.06;4839344;29;114630;-74
2023/07/18 04:16:52;;;;;;;;;;;;;;;17.51;45.82;101988.78;4840203;29;114180;-74
2023/07/18 04:19:19;;;;;;;;;;;;;;;17.51;45.96;101986.09;4837772;29;124319;-74
2023/07/18 04:21:46;;;;;;;;;;;;;;;17.50;45.86;101981.72;4840227;29;122930;-74
2023/07/18 04:24:13;;;;;;;;;;;;;;;17.50;45.91;101979.03;4842133;29;115236;-74
2023/07/18 04:26:40;;;;;;;;;;;;;;;17.49;46.12;101980.81;4849721;29;112966;-74
2023/07/18 04:29:07;;;;;;;;;;;;;;;17.49;45.82;101986.19;4849750;29;121881;-74
2023/07/18 04:31:34;;;;;;;;;;;;;;;17.50;45.91;101981.72;4849335;29;122759;-74
2023/07/18 04:34:01;;;;;;;;;;;;;;;17.50;46.09;101976.34;4843405;29;116958;-74
2023/07/18 04:36:28;;;;;;;;;;;;;;;17.50;46.18;101971.00;4845512;29;114435;-74
2023/07/18 04:38:55;;;;;;;;;;;;;;;17.51;46.05;101972.72;4845135;29;124358;-74
2023/07/18 04:41:23;;;;;;;;;;;;;;;17.50;45.99;101977.22;4848684;29;123778;-74
2023/07/18 04:43:50;;;;;;;;;;;;;;;17.52;46.05;101979.81;4863899;28;114675;-73
2023/07/18 04:46:17;;;;;;;;;;;;;;;17.53;45.98;101976.16;4853762;29;113473;-73
2023/07/18 04:48:44;;;;;;;;;;;;;;;17.54;46.13;101980.59;4850525;29;124539;-74
2023/07/18 04:51:11;;;;;;;;;;;;;;;17.55;46.16;101974.25;4855523;28;123543;-73
2023/07/18 04:53:38;;;;;;;;;;;;;;;17.59;46.08;101975.81;4856206;28;113555;-73
2023/07/18 04:56:05;;;;;;;;;;;;;;;17.64;46.42;101976.41;4856770;28;113706;-73
2023/07/18 04:58:32;;;;;;;;;;;;;;;17.70;46.72;101967.16;4853090;28;124069;-74
2023/07/18 05:00:59;;;;;;;;;;;;;;;17.79;46.69;101971.16;4836791;29;124547;-73
2023/07/18 05:03:26;;;;;;;;;;;;;;;17.86;46.77;101967.19;4836127;29;114624;-74
2023/07/18 05:05:56;;;;;;;;;;;;;;;17.95;46.75;101966.66;4835803;29;113548;-73
2023/07/18 05:08:23;;;;;;;;;;;;;;;18.03;46.81;101974.25;4835739;29;124506;-73
2023/07/18 05:10:50;;;;;;;;;;;;;;;18.09;46.68;101969.38;4834072;29;123076;-73
2023/07/18 05:13:17;;;;;;;;;;;;;;;18.17;46.51;101976.13;4850284;28;114714;-74
2023/07/18 05:15:44;;;;;;;;;;;;;;;18.20;46.55;101968.75;4851013;28;112967;-74
2023/07/18 05:18:11;;;;;;;;;;;;;;;18.24;46.48;101975.66;4835857;29;125306;-73
2023/07/18 05:20:38;;;;;;;;;;;;;;;18.29;46.51;101975.41;4827566;29;125393;-74
2023/07/18 05:23:05;;;;;;;;;;;;;;;18.32;46.61;101975.22;4835603;29;115725;-73
2023/07/18 05:25:33;;;;;;;;;;;;;;;18.37;46.52;101972.28;4844036;29;114871;-74
2023/07/18 05:28:00;;;;;;;;;;;;;;;18.41;46.45;101969.28;4834375;29;124517;-74
2023/07/18 05:30:27;;;;;;;;;;;;;;;18.45;46.42;101970.81;4833811;29;124263;-74
2023/07/18 05:32:54;;;;;;;;;;;;;;;18.51;46.42;101974.09;4834175;29;114347;-73
2023/07/18 05:35:21;;;;;;;;;;;;;;;18.53;46.24;101977.56;4834106;29;113402;-74
2023/07/18 05:37:48;;;;;;;;;;;;;;;18.56;46.40;101966.66;4834029;29;123365;-73
2023/07/18 05:40:15;;;;;;;;;;;;;;;18.59;46.41;101985.22;4835166;29;124258;-74
2023/07/18 05:42:46;;;;;;;;;;;;;;;18.63;46.42;101978.75;4828908;29;114294;-74
2023/07/18 05:45:14;;;;;;;;;;;;;;;18.65;46.34;101987.56;4835307;29;113614;-74
2023/07/18 05:47:42;;;;;;;;;;;;;;;18.66;46.27;101973.16;4835104;29;123922;-74
2023/07/18 05:50:10;;;;;;;;;;;;;;;18.68;46.43;101984.66;4839078;29;124022;-73
2023/07/18 05:52:37;;;;;;;;;;;;;;;18.72;46.29;101978.16;4835979;29;113961;-74
2023/07/18 05:55:05;;;;;;;;;;;;;;;18.75;46.49;101977.97;4835916;29;113760;-73
2023/07/18 05:57:33;;;;;;;;;;;;;;;18.80;46.46;101973.22;4834769;29;123943;-73
2023/07/18 06:00:00;;;;;;;;;;;;;;;18.85;46.38;101973.81;4833829;29;124040;-73
2023/07/18 06:02:38;;;;;;;;;;;;;;;18.91;46.30;101972.56;4831018;29;114896;-74
2023/07/18 06:05:07;;;;;;;;;;;;;;;18.96;46.47;101983.00;4833656;29;113657;-74
2023/07/18 06:07:34;;;;;;;;;;;;;;;19.02;46.40;101980.81;4849160;28;124468;-74
2023/07/18 06:10:01;;;;;;;;;;;;;;;19.07;46.43;101977.84;4834523;29;124358;-74
2023/07/18 06:12:28;;;;;;;;;;;;;;;19.14;46.47;101979.19;4834983;29;115907;-74
2023/07/18 06:14:55;;;;;;;;;;;;;;;19.21;46.56;101980.53;4835555;29;115118;-75
2023/07/18 06:17:22;;;;;;;;;;;;;;;19.28;46.34;101985.50;4842958;29;124405;-75
2023/07/18 06:19:49;;;;;;;;;;;;;;;19.33;46.38;101978.00;4835134;29;124003;-75
2023/07/18 06:22:16;;;;;;;;;;;;;;;19.39;46.18;101982.97;4833510;29;114539;-75
2023/07/18 06:24:44;;;;;;;;;;;;;;;19.43;46.30;101984.50;4833664;29;113625;-74
2023/07/18 06:27:11;;;;;;;;;;;;;;;19.50;46.47;101988.53;4834530;29;124357;-74
2023/07/18 06:29:38;;;;;;;;;;;;;;;19.60;46.33;101992.34;4829428;29;124261;-75
2023/07/18 06:32:05;;;;;;;;;;;;;;;19.68;46.41;101993.66;4850138;28;114205;-76
2023/07/18 06:34:33;;;;;;;;;;;;;;;19.76;46.40;101985.97;4838024;29;113838;-76
2023/07/18 06:37:02;;;;;;;;;;;;;;;19.83;46.50;101981.94;4835300;29;124371;-74
2023/07/18 06:39:29;;;;;;;;;;;;;;;19.94;46.58;101984.78;4830086;29;126430;-76
2023/07/18 06:41:57;;;;;;;;;;;;;;;20.06;46.55;101984.91;4851744;28;113562;-75
2023/07/18 06:44:24;;;;;;;;;;;;;;;20.20;46.52;101984.88;4836904;29;114008;-76
2023/07/18 06:46:52;;;;;;;;;;;;;;;20.33;46.51;101976.81;4850112;28;123682;-75
2023/07/18 06:49:20;;;;;;;;;;;;;;;20.47;46.44;101978.56;4836744;29;123899;-75
2023/07/18 06:51:49;;;;;;;;;;;;;;;20.63;46.60;101981.97;4834333;29;114636;-75
2023/07/18 06:54:16;;;;;;;;;;;;;;;20.78;46.54;101980.88;4837592;29;113671;-75
2023/07/18 06:56:44;;;;;;;;;;;;;;;20.92;46.48;101979.91;4852342;28;123111;-76
2023/07/18 06:59:13;;;;;;;;;;;;;;;21.10;46.51;101980.44;4843473;28;123707;-75
2023/07/18 07:01:42;;;;;;;;;;;;;;;21.27;46.56;101975.66;4837900;29;115661;-76
2023/07/18 07:04:09;;;;;;;;;;;;;;;21.42;46.44;101976.34;4837980;29;114752;-75
2023/07/18 07:06:41;;;;;;;;;;;;;;;21.57;46.51;101975.28;4836480;29;123970;-75
2023/07/18 07:09:09;;;;;;;;;;;;;;;21.75;46.52;101981.13;4845684;29;124960;-75
2023/07/18 07:11:36;;;;;;;;;;;;;;;21.92;46.42;101971.78;4836873;29;114478;-75
2023/07/18 07:14:05;;;;;;;;;;;;;;;22.07;46.34;101976.03;4850360;28;114032;-76
2023/07/18 07:16:33;;;;;;;;;;;;;;;22.23;46.32;101970.34;4835762;29;124180;-75
2023/07/18 07:19:00;;;;;;;;;;;;;;;22.39;46.22;101963.78;4836375;29;124050;-76
2023/07/18 07:21:28;;;;;;;;;;;;;;;22.56;46.36;101966.03;4835614;29;114283;-76
2023/07/18 07:23:55;;;;;;;;;;;;;;;22.76;46.28;101966.31;4835042;29;113074;-76
2023/07/18 07:26:24;;;;;;;;;;;;;;;22.91;46.16;101959.69;4846504;28;124167;-76
2023/07/18 07:28:51;;;;;;;;;;;;;;;23.06;46.08;101957.63;4849994;28;124296;-74
2023/07/18 07:31:18;;;;;;;;;;;;;;;23.20;45.95;101975.44;4850952;28;113416;-76
2023/07/18 07:33:46;;;;;;;;;;;;;;;23.34;45.99;101972.47;4837366;29;113948;-75
2023/07/18 07:36:13;;;;;;;;;;;;;;;23.50;46.13;101967.50;4849995;28;124887;-75
2023/07/18 07:38:40;;;;;;;;;;;;;;;23.65;45.99;101969.94;4829993;29;124111;-75
2023/07/18 07:41:07;;;;;;;;;;;;;;;23.81;45.99;101967.72;4837104;29;115233;-76
2023/07/18 07:43:34;;;;;;;;;;;;;;;23.93;45.72;101962.28;4837162;29;113607;-75
2023/07/18 07:46:01;;;;;;;;;;;;;;;24.04;45.73;101948.69;4838074;29;124480;-75
2023/07/18 07:48:28;;;;;;;;;;;;;;;24.13;45.49;101958.75;4853235;28;123373;-75
2023/07/18 07:50:56;;;;;;;;;;;;;;;24.23;45.38;101959.66;4855105;28;114572;-75
2023/07/18 07:53:23;;;;;;;;;;;;;;;24.35;45.63;101962.31;4849400;29;116188;-75
2023/07/18 07:55:50;;;;;;;;;;;;;;;24.44;45.42;101956.09;4855966;29;123740;-74
2023/07/18 07:58:17;;;;;;;;;;;;;;;24.55;45.29;101955.22;4858742;28;123260;-74
2023/07/18 08:00:44;;;;;;;;;;;;;;;24.65;45.48;101953.41;4854257;29;115092;-75
2023/07/18 08:03:11;;;;;;;;;;;;;;;24.77;45.34;101956.88;4860012;28;111871;-75
2023/07/18 08:05:38;;;;;;;;;;;;;;;24.90;45.02;101957.50;4838972;29;124418;-75
2023/07/18 08:08:05;;;;;;;;;;;;;;;24.98;45.09;101960.41;4830300;29;124738;-75
2023/07/18 08:10:33;;;;;;;;;;;;;;;25.04;45.08;101954.44;4848649;28;113764;-75
2023/07/18 08:13:00;;;;;;;;;;;;;;;25.10;44.98;101952.19;4833282;29;113791;-75
2023/07/18 08:15:26;;;;;;;;;;;;;;;25.17;44.96;101947.94;4836722;29;124160;-75
2023/07/18 08:17:57;;;;;;;;;;;;;;;25.27;44.94;101948.84;4851209;28;123542;-75
2023/07/18 08:20:25;;;;;;;;;;;;;;;25.36;44.79;101948.00;4836658;29;114508;-75
2023/07/18 08:22:52;;;;;;;;;;;;;;;25.44;44.83;101945.44;4837557;29;114383;-75
2023/07/18 08:25:19;;;;;;;;;;;;;;;25.52;44.84;101952.03;4837283;29;123293;-75
2023/07/18 08:27:46;;;;;;;;;;;;;;;25.58;44.79;101946.91;4836816;29;123934;-76
2023/07/18 08:30:13;;;;;;;;;;;;;;;25.67;44.53;101937.06;4851402;28;113547;-75
2023/07/18 08:32:40;;;;;;;;;;;;;;;25.73;44.54;101939.22;4837687;29;113913;-75
2023/07/18 08:35:08;;;;;;;;;;;;;;;25.77;44.48;101924.38;4850749;28;125742;-75
2023/07/18 08:37:35;;;;;;;;;;;;;;;25.86;44.47;101936.22;4847040;28;123419;-75
2023/07/18 08:40:04;;;;;;;;;;;;;;;25.94;44.42;101935.56;4835722;29;115289;-75
2023/07/18 08:42:33;;;;;;;;;;;;;;;26.02;44.45;101935.69;4849254;28;115388;-75
2023/07/18 08:45:01;;;;;;;;;;;;;;;26.10;44.50;101927.66;4832743;29;124413;-75
2023/07/18 08:47:28;;;;;;;;;;;;;;;26.15;44.52;101928.09;4856391;28;124150;-75
2023/07/18 08:49:55;;;;;;;;;;;;;;;26.17;44.49;101931.53;4836649;29;114522;-75
2023/07/18 08:52:22;;;;;;;;;;;;;;;26.18;44.07;101919.66;4847324;28;113133;-75
2023/07/18 08:54:49;;;;;;;;;;;;;;;26.23;44.60;101914.63;4829725;29;124974;-75
2023/07/18 08:57:20;;;;;;;;;;;;;;;26.32;44.50;101917.50;4833867;29;123987;-75
2023/07/18 08:59:48;;;;;;;;;;;;;;;26.38;44.27;101911.47;4833486;29;114667;-75
2023/07/18 09:02:15;;;;;;;;;;;;;;;26.41;44.20;101905.75;4837090;29;113897;-75
2023/07/18 09:04:44;;;;;;;;;;;;;;;26.47;44.21;101899.72;4849509;28;124158;-75
2023/07/18 09:07:13;;;;;;;;;;;;;;;26.58;44.00;101895.97;4833648;29;124265;-74
2023/07/18 09:09:45;;;;;;;;;;;;;;;26.69;44.19;101894.94;4850495;28;113503;-75
2023/07/18 09:12:13;;;;;;;;;;;;;;;26.75;43.76;101897.94;4851747;28;112773;-75
2023/07/18 09:14:40;;;;;;;;;;;;;;;26.79;44.02;101887.63;4834820;29;124319;-75
2023/07/18 09:17:07;;;;;;;;;;;;;;;26.87;43.71;101878.72;4849438;28;124643;-75
2023/07/18 09:19:40;;;;;;;;;;;;;;;26.97;43.86;101880.38;4836622;29;114520;-75
2023/07/18 09:22:08;;;;;;;;;;;;;;;27.07;43.65;101883.03;4837243;29;113116;-75
2023/07/18 09:24:35;;;;;;;;;;;;;;;27.16;43.77;101878.53;4832196;29;123412;-74
2023/07/18 09:27:07;;;;;;;;;;;;;;;27.23;43.77;101885.06;4845570;28;123243;-75
2023/07/18 09:29:35;;;;;;;;;;;;;;;27.25;43.35;101888.53;4833734;29;115486;-74
2023/07/18 09:32:02;;;;;;;;;;;;;;;27.26;43.27;101889.41;4828933;29;115330;-74
2023/07/18 09:34:29;;;;;;;;;;;;;;;27.25;43.39;101872.22;4831490;29;124202;-74
2023/07/18 09:36:57;;;;;;;;;;;;;;;27.28;43.51;101871.91;4849806;28;123267;-74
2023/07/18 09:39:25;;;;;;;;;;;;;;;27.36;43.36;101884.75;4847753;28;115683;-75
2023/07/18 09:41:52;;;;;;;;;;;;;;;27.42;43.24;101877.81;4848596;28;113893;-74
2023/07/18 09:44:21;;;;;;;;;;;;;;;27.46;43.05;101873.78;4848795;28;123383;-72
2023/07/18 09:46:59;;;;;;;;;;;;;;;27.48;42.99;101871.75;4839802;28;125414;-75
2023/07/18 09:49:26;;;;;;;;;;;;;;;27.52;43.27;101856.81;4848689;28;115209;-76
2023/07/18 09:52:05;;;;;;;;;;;;;;;27.55;43.36;101867.41;4834497;29;113784;-76
2023/07/18 09:54:33;;;;;;;;;;;;;;;27.62;43.27;101864.94;4854774;28;123870;-76
2023/07/18 09:57:03;;;;;;;;;;;;;;;27.70;43.13;101868.56;4838128;29;124214;-76
2023/07/18 09:59:30;;;;;;;;;;;;;;;27.83;43.20;101864.59;4832628;29;113548;-77
2023/07/18 10:01:57;;;;;;;;;;;;;;;27.93;43.23;101862.66;4851094;28;113083;-77
2023/07/18 10:04:25;;;;;;;;;;;;;;;27.96;42.81;101860.47;4834368;29;124130;-76
2023/07/18 10:06:55;;;;;;;;;;;;;;;27.92;42.94;101869.13;4847464;28;122887;-77
2023/07/18 10:09:23;;;;;;;;;;;;;;;27.82;42.49;101862.88;4849640;28;115462;-76
2023/07/18 10:12:08;;;;;;;;;;;;;;;27.70;42.46;101860.41;4845802;29;113776;-76
2023/07/18 10:14:41;;;;;;;;;;;;;;;27.64;42.37;101861.03;4861722;28;124272;-76
2023/07/18 10:17:08;;;;;;;;;;;;;;;27.63;42.58;101856.59;4834266;29;123810;-76
2023/07/18 10:19:46;;;;;;;;;;;;;;;27.66;42.58;101859.00;4849376;28;114540;-76
2023/07/18 10:22:24;;;;;;;;;;;;;;;27.73;42.70;101849.19;4835335;29;113637;-76
2023/07/18 10:24:51;;;;;;;;;;;;;;;27.82;42.86;101849.25;4836883;29;124998;-76
2023/07/18 10:27:21;;;;;;;;;;;;;;;27.91;42.79;101840.19;4848932;28;123948;-77
2023/07/18 10:30:05;;;;;;;;;;;;;;;27.98;42.59;101834.97;4845102;28;114267;-76
2023/07/18 10:32:32;;;;;;;;;;;;;;;28.02;42.38;101834.47;4847227;28;113626;-76
2023/07/18 10:35:02;;;;;;;;;;;;;;;28.06;42.48;101835.84;4839111;29;124351;-76
2023/07/18 10:37:30;;;;;;;;;;;;;;;28.14;42.54;101825.03;4857631;28;124113;-76
2023/07/18 10:39:57;;;;;;;;;;;;;;;28.22;42.41;101821.50;4842776;29;115503;-76
2023/07/18 10:42:26;;;;;;;;;;;;;;;28.24;42.27;101818.63;4843562;29;113379;-75
2023/07/18 10:44:54;;;;;;;;;;;;;;;28.23;42.11;101806.00;4847092;29;124392;-76
2023/07/18 10:47:21;;;;;;;;;;;;;;;28.18;41.97;101808.34;4843818;29;124239;-76
2023/07/18 10:49:49;;;;;;;;;;;;;;;28.15;41.89;101804.94;4833387;29;114133;-76
2023/07/18 10:52:16;;;;;;;;;;;;;;;28.21;42.07;101808.03;4838112;29;113968;-76
2023/07/18 10:54:57;;;;;;;;;;;;;;;28.29;42.31;101805.34;4829871;29;124713;-76
2023/07/18 10:57:28;;;;;;;;;;;;;;;28.36;41.92;101800.94;4827196;29;124159;-76
2023/07/18 10:59:55;;;;;;;;;;;;;;;28.41;42.03;101787.69;4833950;29;114376;-76
2023/07/18 11:02:22;;;;;;;;;;;;;;;28.51;42.16;101798.47;4835171;29;113535;-76
2023/07/18 11:04:53;;;;;;;;;;;;;;;28.58;41.95;101783.19;4848312;28;123580;-76
2023/07/18 11:07:31;;;;;;;;;;;;;;;28.67;42.14;101786.78;4834493;29;124109;-76
2023/07/18 11:09:59;;;;;;;;;;;;;;;28.77;42.02;101782.06;4832948;29;114612;-76
2023/07/18 11:12:26;;;;;;;;;;;;;;;28.88;42.06;101789.94;4842070;29;114636;-76
2023/07/18 11:14:54;;;;;;;;;;;;;;;28.95;41.80;101786.53;4842110;29;124367;-77
2023/07/18 11:17:22;;;;;;;;;;;;;;;28.96;41.59;101796.44;4849359;28;123323;-77
2023/07/18 11:19:49;;;;;;;;;;;;;;;28.97;41.64;101781.75;4835765;29;114474;-77
2023/07/18 11:22:16;;;;;;;;;;;;;;;28.97;41.41;101788.09;4839762;29;114158;-76
2023/07/18 11:24:44;;;;;;;;;;;;;;;28.99;41.36;101774.25;4836538;29;124079;-76
2023/07/18 11:27:18;;;;;;;;;;;;;;;29.03;41.41;101775.66;4842388;29;123936;-76
2023/07/18 11:29:49;;;;;;;;;;;;;;;29.08;41.20;101776.00;4853032;28;113969;-76
2023/07/18 11:32:28;;;;;;;;;;;;;;;29.15;41.63;101779.78;4852222;28;113490;-77
2023/07/18 11:34:59;;;;;;;;;;;;;;;29.24;41.20;101778.78;4848292;28;123576;-77
2023/07/18 11:37:26;;;;;;;;;;;;;;;29.31;41.31;101768.88;4842094;29;124188;-76
2023/07/18 11:39:57;;;;;;;;;;;;;;;29.39;41.19;101770.75;4844589;29;115041;-76
2023/07/18 11:42:38;;;;;;;;;;;;;;;29.43;41.17;101768.53;4850681;29;113528;-76
2023/07/18 11:45:08;;;;;;;;;;;;;;;29.48;40.99;101763.44;4861187;28;123364;-76
2023/07/18 11:47:35;;;;;;;;;;;;;;;29.49;40.95;101759.66;4847532;29;124234;-76
2023/07/18 11:50:08;;;;;;;;;;;;;;;29.49;40.80;101748.75;4842978;29;113983;-76
2023/07/18 11:52:35;;;;;;;;;;;;;;;29.44;40.63;101762.06;4852365;28;114099;-76
2023/07/18 11:55:02;;;;;;;;;;;;;;;29.42;40.90;101764.09;4839796;29;123971;-77
2023/07/18 11:57:29;;;;;;;;;;;;;;;29.45;40.94;101763.78;4845674;29;124010;-76
2023/07/18 11:59:56;;;;;;;;;;;;;;;29.48;40.85;101763.44;4851700;29;115608;-76
2023/07/18 12:02:23;;;;;;;;;;;;;;;29.51;40.78;101757.63;4842444;29;114555;-76
2023/07/18 12:04:51;;;;;;;;;;;;;;;29.51;40.79;101749.44;4835511;29;124216;-75
2023/07/18 12:07:19;;;;;;;;;;;;;;;29.51;40.74;101757.63;4850177;28;124016;-76
2023/07/18 12:09:45;;;;;;;;;;;;;;;29.55;40.82;101758.97;4854085;28;114570;-76
2023/07/18 12:12:13;;;;;;;;;;;;;;;29.60;40.70;101751.13;4850486;29;113821;-75
2023/07/18 12:14:41;;;;;;;;;;;;;;;29.65;40.61;101748.75;4840603;29;124563;-76
2023/07/18 12:17:08;;;;;;;;;;;;;;;29.64;40.11;101730.63;4848120;28;122459;-76
2023/07/18 12:19:35;;;;;;;;;;;;;;;29.62;40.35;101738.16;4841431;29;114539;-76
2023/07/18 12:22:02;;;;;;;;;;;;;;;29.61;40.30;101730.13;4839275;29;112963;-74
2023/07/18 12:24:29;;;;;;;;;;;;;;;29.64;40.42;101741.56;4833107;29;127534;-75
2023/07/18 12:26:56;;;;;;;;;;;;;;;29.68;40.03;101742.91;4839272;29;124200;-76
2023/07/18 12:29:23;;;;;;;;;;;;;;;29.69;39.75;101741.06;4850143;28;114021;-76
2023/07/18 12:31:51;;;;;;;;;;;;;;;29.69;39.91;101755.56;4834531;29;115174;-76